Pepper Pike, Ohio
Current Conditions -  °F | °C
As of 10:45 PM on Saturday 20 Dec 2014 (Local Time) from KCGF Reporting Station
Overcast Overcast  
Wind Chill: 26°   Ceiling: 2000
Heat Index: 32°   Visibility: 7mi
Dew Point: 27°   Wind: 6mph
Humidity: 80%   Direction: 270°W
Pressure: 30.29"   Gusts: NA
Location:  41.4698°N, 81.5121°W
Report Text: KCGF 210345Z 27005KT 7SM OVC020 00/M03 A3029
Loading
Personal Weather Stations






























Interactive Weather Map New forecast layout! Learn more

10-Day Weather Forecast

Advertisements
Track Severe Weather on mobile